createdAt,value
2018-04-01T00:00:31.975Z,3.30
2018-04-01T00:05:33.607Z,2.97
2018-04-01T00:08:04.617Z,3.22
2018-04-01T00:10:35.122Z,3.28
2018-04-01T00:13:06.571Z,3.10
2018-04-01T00:15:37.756Z,3.15
2018-04-01T00:18:07.964Z,3.30
2018-04-01T00:23:08.054Z,3.12
2018-04-01T00:28:08.104Z,2.60
2018-04-01T00:30:38.198Z,3.07
2018-04-01T00:33:08.570Z,2.83
2018-04-01T00:35:38.569Z,2.40
2018-04-01T00:38:08.593Z,2.12
2018-04-01T00:40:38.974Z,2.25
2018-04-01T00:45:38.967Z,2.37
2018-04-01T00:50:38.971Z,2.15
2018-04-01T00:55:40.262Z,2.15
2018-04-01T00:58:10.586Z,2.00
2018-04-01T01:00:40.978Z,1.95
2018-04-01T01:05:40.975Z,2.00
2018-04-01T01:08:10.985Z,1.70
2018-04-01T01:13:11.976Z,2.53
2018-04-01T01:15:42.218Z,2.30
2018-04-01T01:18:12.597Z,2.10
2018-04-01T01:20:43.251Z,2.10
2018-04-01T01:23:13.622Z,2.03
2018-04-01T01:25:45.064Z,2.15
2018-04-01T01:28:16.558Z,2.27
2018-04-01T01:30:49.031Z,2.42
2018-04-01T01:35:49.000Z,2.03
2018-04-01T01:38:19.003Z,2.20
2018-04-01T01:43:18.986Z,2.25
2018-04-01T01:45:49.153Z,1.83
2018-04-01T01:48:19.423Z,2.50
2018-04-01T01:50:49.618Z,2.47
2018-04-01T01:53:20.128Z,1.95
2018-04-01T01:55:50.574Z,1.97
2018-04-01T01:58:20.898Z,2.45
2018-04-01T02:00:51.178Z,2.37
2018-04-01T02:03:21.624Z,2.40
2018-04-01T02:06:56.280Z,2.05
2018-04-01T02:09:26.578Z,2.10
2018-04-01T02:11:56.628Z,1.95
2018-04-01T02:14:27.481Z,1.98
2018-04-01T02:16:57.720Z,2.17
2018-04-01T02:19:28.146Z,2.17
2018-04-01T02:21:59.351Z,1.87
2018-04-01T02:24:29.638Z,2.00
2018-04-01T02:27:01.248Z,2.25
2018-04-01T02:29:31.895Z,1.70
2018-04-01T02:32:02.429Z,1.70
2018-04-01T02:34:33.539Z,1.93
2018-04-01T02:37:04.116Z,2.10
2018-04-01T02:39:35.618Z,2.03
2018-04-01T02:42:06.133Z,2.08
2018-04-01T02:44:36.717Z,2.13
2018-04-01T02:47:07.095Z,1.85
2018-04-01T02:49:37.553Z,2.00
2018-04-01T02:52:07.844Z,1.77
2018-04-01T02:54:38.170Z,2.00
2018-04-01T02:57:09.234Z,2.10
2018-04-01T02:59:39.618Z,2.10
2018-04-01T03:02:10.080Z,1.85
2018-04-01T03:09:40.013Z,2.27
2018-04-01T03:17:10.415Z,1.83
2018-04-01T03:19:40.914Z,2.00
2018-04-01T03:22:12.488Z,1.80
2018-04-01T03:24:43.576Z,1.70
2018-04-01T03:27:14.191Z,1.93
2018-04-01T03:29:44.923Z,2.13
2018-04-01T03:32:15.148Z,2.27
2018-04-01T03:34:45.483Z,2.10
2018-04-01T03:37:15.927Z,2.17
2018-04-01T03:39:46.174Z,1.95
2018-04-01T03:42:16.985Z,2.30
2018-04-01T03:44:48.203Z,1.73
2018-04-01T03:47:19.593Z,2.30
2018-04-01T03:49:50.139Z,1.90
2018-04-01T03:52:21.211Z,2.13
2018-04-01T03:54:53.775Z,2.60
2018-04-01T03:57:24.182Z,2.72
2018-04-01T03:59:54.807Z,2.20
2018-04-01T04:04:54.936Z,2.27
2018-04-01T04:08:53.019Z,2.45
2018-04-01T04:13:53.019Z,2.20
2018-04-01T04:18:52.630Z,2.08
2018-04-01T04:21:23.018Z,2.80
2018-04-01T04:23:53.057Z,2.05
2018-04-01T04:28:53.021Z,3.12
2018-04-01T04:33:54.024Z,2.40
2018-04-01T04:36:24.208Z,2.30
2018-04-01T04:38:55.210Z,2.67
2018-04-01T04:41:25.436Z,2.40
2018-04-01T04:43:55.627Z,2.10
2018-04-01T04:46:26.142Z,2.07
2018-04-01T04:48:57.342Z,2.40
2018-04-01T04:51:27.612Z,2.10
2018-04-01T04:53:57.611Z,2.30
2018-04-01T04:56:28.048Z,2.33
2018-04-01T05:01:28.044Z,2.40
2018-04-01T05:03:58.659Z,2.50
2018-04-01T05:06:29.040Z,2.10
2018-04-01T05:08:59.036Z,2.40
2018-04-01T05:14:00.066Z,2.70
2018-04-01T05:19:00.053Z,2.15
2018-04-01T05:24:00.216Z,2.20
2018-04-01T05:26:30.630Z,2.60
2018-04-01T05:29:00.965Z,1.90
2018-04-01T05:31:31.602Z,1.90
2018-04-01T05:34:01.827Z,1.77
2018-04-01T05:36:32.050Z,1.50
2018-04-01T05:39:03.235Z,1.60
2018-04-01T05:41:33.663Z,1.73
2018-04-01T05:44:04.193Z,1.87
2018-04-01T05:46:34.564Z,1.83
2018-04-01T05:49:04.958Z,1.90
2018-04-01T05:51:35.240Z,1.85
2018-04-01T05:54:05.659Z,1.77
2018-04-01T05:56:36.181Z,1.90
2018-04-01T05:59:07.397Z,1.50
2018-04-01T06:01:37.823Z,1.60
2018-04-01T06:04:09.195Z,1.80
2018-04-01T06:06:39.691Z,1.83
2018-04-01T06:09:10.057Z,1.70
2018-04-01T06:14:11.143Z,1.50
2018-04-01T06:19:12.051Z,1.70
2018-04-01T06:24:12.067Z,1.80
2018-04-01T06:29:12.186Z,1.90
2018-04-01T06:36:42.141Z,1.70
2018-04-01T06:39:12.659Z,1.80
2018-04-01T06:41:43.152Z,2.00
2018-04-01T06:46:42.955Z,1.70
2018-04-01T06:49:13.236Z,2.05
2018-04-01T06:51:43.654Z,1.87
2018-04-01T06:54:14.236Z,1.80
2018-04-01T06:56:44.647Z,2.13
2018-04-01T06:59:14.800Z,2.50
2018-04-01T07:01:45.184Z,2.20
2018-04-01T07:04:15.484Z,1.73
2018-04-01T07:06:46.120Z,1.97
2018-04-01T07:11:46.193Z,1.70
2018-04-01T07:14:16.660Z,1.87
2018-04-01T07:16:47.178Z,1.90
2018-04-01T07:19:17.577Z,2.47
2018-04-01T07:21:47.992Z,2.10
2018-04-01T07:24:18.172Z,2.00
2018-04-01T07:29:18.225Z,2.00
2018-04-01T07:31:48.703Z,2.10
2018-04-01T07:34:19.175Z,2.33
2018-04-01T07:36:49.539Z,2.43
2018-04-01T07:39:19.897Z,2.13
2018-04-01T07:41:50.196Z,2.15
2018-04-01T07:44:20.539Z,2.23
2018-04-01T07:46:50.828Z,1.77
2018-04-01T07:49:21.197Z,1.95
2018-04-01T07:51:51.505Z,2.27
2018-04-01T07:54:21.803Z,2.43
2018-04-01T07:56:52.167Z,2.28
2018-04-01T07:59:22.234Z,1.90
2018-04-01T08:01:52.540Z,2.17
2018-04-01T08:04:23.525Z,2.20
2018-04-01T08:06:53.806Z,2.20
2018-04-01T08:09:25.086Z,2.28
2018-04-01T08:14:25.071Z,2.37
2018-04-01T08:16:56.293Z,2.67
2018-04-01T08:19:26.629Z,2.60
2018-04-01T08:21:56.689Z,2.40
2018-04-01T08:24:27.077Z,2.22
2018-04-01T08:29:27.091Z,2.00
2018-04-01T08:34:27.080Z,1.65
2018-04-01T08:36:57.232Z,2.35
2018-04-01T08:39:27.473Z,2.13
2018-04-01T08:41:57.676Z,2.20
2018-04-01T08:44:28.788Z,2.30
2018-04-01T08:46:59.091Z,2.30
2018-04-01T08:51:58.775Z,1.80
2018-04-01T08:54:29.094Z,1.77
2018-04-01T08:56:59.091Z,1.60
2018-04-01T09:01:59.088Z,1.92
2018-04-01T09:06:59.084Z,1.75
2018-04-01T09:11:59.015Z,2.60
2018-04-01T09:14:30.080Z,2.60
2018-04-01T09:17:00.329Z,2.20
2018-04-01T09:19:30.683Z,2.20
2018-04-01T09:22:01.346Z,2.40
2018-04-01T09:24:32.505Z,2.40
2018-04-01T09:27:03.246Z,2.30
2018-04-01T09:29:34.523Z,2.33
2018-04-01T09:32:05.997Z,2.30
2018-04-01T09:34:36.689Z,2.40
2018-04-01T09:37:08.058Z,2.30
2018-04-01T09:42:09.272Z,2.30
2018-04-01T09:44:40.249Z,2.67
2018-04-01T09:47:11.092Z,2.40
2018-04-01T09:52:12.426Z,2.30
2018-04-01T09:54:43.439Z,2.17
2018-04-01T09:57:14.508Z,2.60
2018-04-01T09:59:45.731Z,2.20
2018-04-01T10:02:20.097Z,2.25
2018-04-01T10:04:53.428Z,2.27
2018-04-01T10:07:26.099Z,2.37
2018-04-01T10:12:30.996Z,2.12
2018-04-01T10:15:04.099Z,2.20
2018-04-01T10:20:09.123Z,2.30
2018-04-01T10:27:45.202Z,2.03
2018-04-01T10:32:49.588Z,1.90
2018-04-01T10:35:22.694Z,2.20
2018-04-01T10:37:55.560Z,2.40
2018-04-01T10:40:28.096Z,2.30
2018-04-01T10:48:04.025Z,2.37
2018-04-01T10:50:36.755Z,1.98
2018-04-01T10:53:09.676Z,2.33
2018-04-01T10:55:40.387Z,2.13
2018-04-01T10:58:11.406Z,2.23
2018-04-01T11:00:42.345Z,1.77
2018-04-01T11:03:13.040Z,2.27
2018-04-01T11:05:44.348Z,2.25
2018-04-01T11:08:15.574Z,2.37
2018-04-01T11:10:46.723Z,2.20
2018-04-01T11:13:17.296Z,2.00
2018-04-01T11:15:48.404Z,2.23
2018-04-01T11:18:19.721Z,2.13
2018-04-01T11:20:51.119Z,2.40
2018-04-01T11:28:23.482Z,2.28
2018-04-01T11:30:54.444Z,2.30
2018-04-01T11:33:25.384Z,2.43
2018-04-01T11:35:56.525Z,2.30
2018-04-01T11:38:27.860Z,2.20
2018-04-01T11:40:58.617Z,1.90
2018-04-01T11:43:29.323Z,2.00
2018-04-01T11:46:00.489Z,2.00
2018-04-01T11:48:31.285Z,1.93
2018-04-01T11:51:02.341Z,2.17
2018-04-01T11:53:33.523Z,2.03
2018-04-01T11:56:04.248Z,1.97
2018-04-01T11:58:35.400Z,2.03
2018-04-01T12:01:06.186Z,2.03
2018-04-01T12:06:08.594Z,2.30
2018-04-01T12:08:39.563Z,2.20
2018-04-01T12:11:11.028Z,2.00
2018-04-01T12:13:42.455Z,2.42
2018-04-01T12:16:13.553Z,2.13
2018-04-01T12:18:45.313Z,2.10
2018-04-01T12:21:16.758Z,2.20
2018-04-01T12:23:48.128Z,2.00
2018-04-01T12:26:19.282Z,2.00
2018-04-01T12:28:50.134Z,2.00
2018-04-01T12:31:21.501Z,1.90
2018-04-01T12:33:52.269Z,2.00
2018-04-01T12:36:23.205Z,2.03
2018-04-01T12:38:54.140Z,2.27
2018-04-01T12:41:25.107Z,2.20
2018-04-01T12:46:26.519Z,1.73
2018-04-01T12:48:57.686Z,2.30
2018-04-01T12:51:29.089Z,2.17
2018-04-01T12:54:00.223Z,2.00
2018-04-01T12:56:31.324Z,2.13
2018-04-01T12:59:02.302Z,2.10
2018-04-01T13:01:33.411Z,2.00
2018-04-01T13:04:04.462Z,2.00
2018-04-01T13:06:35.324Z,1.87
2018-04-01T13:09:06.094Z,1.97
2018-04-01T13:11:37.151Z,2.05
2018-04-01T13:16:38.262Z,2.17
2018-04-01T13:19:10.052Z,2.20
2018-04-01T13:21:41.180Z,1.83
2018-04-01T13:29:13.331Z,2.10
2018-04-01T13:31:44.423Z,2.00
2018-04-01T13:34:15.609Z,2.00
2018-04-01T13:36:48.152Z,2.37
2018-04-01T13:39:19.548Z,2.10
2018-04-01T13:41:50.357Z,2.00
2018-04-01T13:44:21.326Z,1.80
2018-04-01T13:46:52.154Z,2.03
2018-04-01T13:49:23.502Z,2.00
2018-04-01T13:51:54.568Z,1.80
2018-04-01T13:54:25.141Z,2.03
2018-04-01T14:01:58.153Z,2.10
2018-04-01T14:04:29.150Z,2.10
2018-04-01T14:09:30.364Z,1.80
2018-04-01T14:12:01.546Z,1.90
2018-04-01T14:14:32.482Z,1.80
2018-04-01T14:17:03.377Z,1.80
2018-04-01T14:19:34.550Z,1.90
2018-04-01T14:22:05.338Z,1.80
2018-04-01T14:24:36.299Z,1.60
2018-04-01T14:27:07.155Z,1.80
2018-04-01T14:29:38.529Z,1.93
2018-04-01T14:32:09.671Z,1.80
2018-04-01T14:34:40.347Z,1.73
2018-04-01T14:37:11.342Z,1.90
2018-04-01T14:39:42.352Z,1.90
2018-04-01T14:42:13.640Z,1.70
2018-04-01T14:44:44.579Z,1.90
2018-04-01T14:47:15.354Z,1.60
2018-04-01T14:49:46.460Z,2.20
2018-04-01T14:52:17.176Z,2.30
2018-04-01T14:57:19.402Z,1.93
2018-04-01T14:59:50.168Z,1.93
2018-04-01T15:02:21.735Z,2.10
2018-04-01T15:04:53.756Z,2.05
2018-04-01T15:07:25.500Z,2.20
2018-04-01T15:09:56.303Z,2.13
2018-04-01T15:12:27.347Z,2.03
2018-04-01T15:14:58.526Z,1.97
2018-04-01T15:17:29.334Z,2.10
2018-04-01T15:20:00.609Z,1.90
2018-04-01T15:22:31.752Z,2.00
2018-04-01T15:25:03.175Z,2.12
2018-04-01T15:30:04.577Z,2.20
2018-04-01T15:32:35.513Z,1.93
2018-04-01T15:35:06.446Z,2.27
2018-04-01T15:37:37.529Z,1.80
2018-04-01T15:40:09.566Z,2.10
2018-04-01T15:42:40.324Z,2.10
2018-04-01T15:45:11.172Z,2.17
2018-04-01T15:50:13.512Z,1.97
2018-04-01T15:52:44.454Z,2.20
2018-04-01T15:55:15.304Z,2.10
2018-04-01T16:00:16.946Z,2.13
2018-04-01T16:02:48.404Z,2.17
2018-04-01T16:05:19.511Z,1.90
2018-04-01T16:07:50.330Z,2.13
2018-04-01T16:10:21.458Z,1.87
2018-04-01T16:12:52.759Z,1.93
2018-04-01T16:15:24.494Z,2.00
2018-04-01T16:17:55.510Z,2.00
2018-04-01T16:20:26.231Z,1.97
2018-04-01T16:25:28.239Z,2.10
2018-04-01T16:30:30.546Z,1.77
2018-04-01T16:33:02.392Z,2.13
2018-04-01T16:35:33.182Z,2.20
2018-04-01T16:38:50.679Z,2.10
2018-04-01T16:41:21.386Z,2.00
2018-04-01T16:43:52.610Z,2.13
2018-04-01T16:46:24.226Z,2.13
2018-04-01T16:51:25.202Z,2.00
2018-04-01T16:53:56.511Z,2.00
